Time;durP1;ratioP1;P1;durP2;ratioP2;P2;SDS_P1;SDS_P2;PMS_P1;PMS_P2;Temp;Humidity;BMP_temperature;BMP_pressure;BME280_temperature;BME280_humidity;BME280_pressure;Samples;Min_cycle;Max_cycle;Signal;HPM_P1;HPM_P2
2022/05/22 00:00:11;;;;;;;9.37;6.43;;;;;;;10.27;100.00;101121.50;681909;28;1701;-82
2022/05/22 00:00:32;;;;;;;9.93;6.75;;;;;;;10.27;100.00;101125.00;682199;28;1915;-81
2022/05/22 00:00:53;;;;;;;10.60;6.73;;;;;;;10.30;100.00;101119.81;682793;28;1923;-81
2022/05/22 00:01:15;;;;;;;9.05;6.30;;;;;;;10.31;100.00;101141.56;680324;28;4422;-81
2022/05/22 00:01:41;;;;;;;9.13;6.60;;;;;;;10.37;100.00;101124.22;682354;28;1796;-81
2022/05/22 00:02:03;;;;;;;9.52;6.30;;;;;;;10.41;100.00;101132.91;684683;28;1559;-81
2022/05/22 00:02:23;;;;;;;9.48;6.50;;;;;;;10.44;100.00;101122.50;682313;28;1616;-81
2022/05/22 00:02:49;;;;;;;9.45;6.53;;;;;;;10.44;100.00;101111.16;685684;28;1661;-81
2022/05/22 00:03:10;;;;;;;9.15;6.40;;;;;;;10.47;100.00;101116.41;683425;28;1901;-82
2022/05/22 00:03:31;;;;;;;9.75;6.50;;;;;;;10.46;100.00;101127.72;681010;28;1797;-81
2022/05/22 00:03:51;;;;;;;10.85;6.70;;;;;;;10.47;100.00;101111.19;680815;28;1570;-82
2022/05/22 00:04:12;;;;;;;10.63;6.50;;;;;;;10.47;100.00;101121.63;680213;28;4311;-81
2022/05/22 00:04:34;;;;;;;9.75;6.40;;;;;;;10.48;100.00;101129.47;684599;28;1547;-81
2022/05/22 00:04:54;;;;;;;9.35;6.80;;;;;;;10.47;100.00;101135.56;682149;28;1142;-81
2022/05/22 00:05:18;;;;;;;9.15;6.60;;;;;;;10.45;100.00;101111.16;682960;28;2114;-82
2022/05/22 00:05:40;;;;;;;10.25;6.55;;;;;;;10.41;100.00;101117.22;684577;28;1403;-81
2022/05/22 00:06:02;;;;;;;10.88;6.55;;;;;;;10.39;100.00;101108.53;685839;28;1423;-81
2022/05/22 00:06:22;;;;;;;9.07;6.77;;;;;;;10.33;100.00;101103.25;684056;28;1693;-81
2022/05/22 00:06:43;;;;;;;9.02;7.10;;;;;;;10.31;100.00;101105.84;682752;28;1848;-82
2022/05/22 00:07:07;;;;;;;9.25;6.78;;;;;;;10.29;100.00;101097.13;683228;28;4353;-81
2022/05/22 00:07:27;;;;;;;10.07;7.05;;;;;;;10.26;100.00;101115.44;681333;28;1772;-81
2022/05/22 00:07:49;;;;;;;10.37;6.80;;;;;;;10.27;100.00;101124.13;683101;28;1735;-81
2022/05/22 00:08:09;;;;;;;9.80;6.75;;;;;;;10.33;100.00;101098.03;682531;28;1889;-81
2022/05/22 00:08:30;;;;;;;10.13;6.93;;;;;;;10.38;100.00;101104.16;683483;28;1824;-82
2022/05/22 00:08:51;;;;;;;8.57;6.63;;;;;;;10.41;100.00;101105.91;683497;28;1693;-81
2022/05/22 00:09:11;;;;;;;9.77;6.77;;;;;;;10.42;100.00;101102.44;682750;28;1776;-82
2022/05/22 00:09:34;;;;;;;10.73;6.70;;;;;;;10.42;100.00;101098.06;686171;28;1590;-82
2022/05/22 00:09:54;;;;;;;11.55;6.60;;;;;;;10.42;100.00;101098.06;678707;29;1826;-81
2022/05/22 00:10:16;;;;;;;9.60;6.72;;;;;;;10.41;100.00;101103.31;679845;28;4341;-82
2022/05/22 00:10:36;;;;;;;9.02;6.50;;;;;;;10.42;100.00;101095.47;682998;28;1681;-81
2022/05/22 00:10:57;;;;;;;10.20;6.13;;;;;;;10.46;100.00;101101.59;686224;28;1647;-81
2022/05/22 00:11:19;;;;;;;11.25;6.65;;;;;;;10.48;100.00;101099.84;686417;28;1497;-81
2022/05/22 00:11:40;;;;;;;9.50;6.60;;;;;;;10.47;100.00;101098.97;686129;28;1647;-81
2022/05/22 00:12:00;;;;;;;9.38;6.45;;;;;;;10.45;100.00;101107.66;688727;28;1572;-82
2022/05/22 00:12:20;;;;;;;11.53;6.80;;;;;;;10.44;100.00;101101.59;688399;28;1539;-81
2022/05/22 00:12:42;;;;;;;11.02;6.75;;;;;;;10.44;100.00;101098.97;682412;28;1822;-81
2022/05/22 00:13:02;;;;;;;12.35;6.38;;;;;;;10.39;100.00;101106.78;681842;28;1809;-81
2022/05/22 00:13:23;;;;;;;8.47;6.37;;;;;;;10.37;100.00;101107.63;681487;28;4400;-81
2022/05/22 00:13:43;;;;;;;9.13;6.17;;;;;;;10.44;100.00;101101.59;684118;28;1318;-81
2022/05/22 00:14:04;;;;;;;9.07;6.70;;;;;;;10.47;100.00;101104.19;684464;28;1511;-81
2022/05/22 00:14:26;;;;;;;10.25;6.70;;;;;;;10.48;100.00;101098.09;686705;28;1822;-81
2022/05/22 00:14:46;;;;;;;10.73;6.75;;;;;;;10.43;100.00;101105.06;687791;28;1322;-81
2022/05/22 00:15:08;;;;;;;8.23;6.50;;;;;;;10.42;100.00;101099.81;686920;28;1389;-82
2022/05/22 00:15:30;;;;;;;9.13;6.35;;;;;;;10.41;100.00;101098.94;688470;28;1353;-81
2022/05/22 00:16:36;;;;;;;10.57;6.50;;;;;;;10.39;100.00;101101.53;689098;28;4828;-81
2022/05/22 00:17:09;;;;;;;10.65;6.78;;;;;;;10.33;100.00;101108.50;690160;28;1379;-81
2022/05/22 00:17:29;;;;;;;9.43;6.53;;;;;;;10.30;100.00;101104.13;684417;28;1649;-82
2022/05/22 00:17:50;;;;;;;9.77;6.43;;;;;;;10.31;100.00;101095.38;683520;28;1319;-81
2022/05/22 00:18:11;;;;;;;9.80;6.57;;;;;;;10.31;100.00;101104.97;683384;28;1566;-81
2022/05/22 00:18:32;;;;;;;10.65;6.70;;;;;;;10.32;100.00;101101.50;683900;28;2008;-81
2022/05/22 00:18:52;;;;;;;11.37;7.00;;;;;;;10.33;100.00;101098.03;683860;28;1961;-81
2022/05/22 00:19:16;;;;;;;11.85;7.32;;;;;;;10.33;100.00;101103.25;683871;28;4313;-81
2022/05/22 00:19:38;;;;;;;10.52;7.00;;;;;;;10.36;100.00;101111.13;684960;28;1509;-81
2022/05/22 00:19:58;;;;;;;10.88;6.60;;;;;;;10.38;100.00;101105.06;680714;28;1221;-82
2022/05/22 00:20:19;;;;;;;9.70;6.40;;;;;;;10.42;100.00;101110.28;683920;28;1994;-81
2022/05/22 00:20:40;;;;;;;10.38;6.68;;;;;;;10.44;100.00;101106.81;684063;28;1775;-81
2022/05/22 00:21:00;;;;;;;9.60;6.43;;;;;;;10.46;100.00;101131.19;683959;28;1891;-81
2022/05/22 00:21:21;;;;;;;9.63;6.10;;;;;;;10.49;100.00;101139.03;686129;28;1261;-82
2022/05/22 00:21:41;;;;;;;8.47;6.00;;;;;;;10.48;100.00;101105.94;682673;28;1567;-82
2022/05/22 00:22:03;;;;;;;7.72;5.85;;;;;;;10.51;100.00;101123.38;686118;28;1383;-81
2022/05/22 00:22:24;;;;;;;9.73;6.35;;;;;;;10.54;100.00;101112.94;687226;28;6183;-81
2022/05/22 00:22:44;;;;;;;9.98;6.53;;;;;;;10.54;100.00;101107.69;686222;28;1866;-81
2022/05/22 00:23:05;;;;;;;9.80;6.50;;;;;;;10.54;100.00;101142.53;687414;28;1264;-81
2022/05/22 00:23:28;;;;;;;10.30;6.90;;;;;;;10.55;100.00;101132.97;685607;28;1733;-81
2022/05/22 00:23:48;;;;;;;10.15;6.97;;;;;;;10.55;100.00;101131.22;684915;28;1706;-81
2022/05/22 00:24:11;;;;;;;9.17;6.57;;;;;;;10.57;100.00;101108.56;680615;28;1599;-81
2022/05/22 00:24:32;;;;;;;12.35;6.80;;;;;;;10.56;100.00;101124.25;679786;29;1484;-81
2022/05/22 00:24:52;;;;;;;10.75;6.55;;;;;;;10.55;100.00;101105.09;680189;28;1505;-81
2022/05/22 00:25:13;;;;;;;8.90;6.60;;;;;;;10.55;100.00;101099.88;676351;29;4406;-81
2022/05/22 00:25:34;;;;;;;9.50;6.60;;;;;;;10.54;100.00;101111.19;680263;28;1656;-81
2022/05/22 00:25:59;;;;;;;9.47;6.33;;;;;;;10.57;100.00;101108.56;682357;28;1946;-81
2022/05/22 00:26:20;;;;;;;9.93;6.20;;;;;;;10.59;100.00;101102.47;683584;28;1540;-81
2022/05/22 00:26:44;;;;;;;10.30;6.60;;;;;;;10.60;100.00;101114.69;683357;28;1424;-82
2022/05/22 00:27:06;;;;;;;10.20;7.22;;;;;;;10.57;100.00;101111.19;685248;28;1306;-81
2022/05/22 00:27:28;;;;;;;9.65;6.25;;;;;;;10.58;100.00;101127.75;679904;28;1772;-81
2022/05/22 00:27:49;;;;;;;9.90;6.40;;;;;;;10.60;100.00;101125.16;678775;28;1453;-81
2022/05/22 00:28:09;;;;;;;11.63;6.40;;;;;;;10.64;100.00;101116.44;680231;28;5716;-82
2022/05/22 00:28:29;;;;;;;12.30;6.57;;;;;;;10.63;100.00;101112.06;679506;29;1512;-82
2022/05/22 00:28:50;;;;;;;8.93;6.30;;;;;;;10.65;100.00;101115.56;682665;28;1258;-81
2022/05/22 00:29:11;;;;;;;9.52;6.25;;;;;;;10.66;100.00;101106.84;685736;28;2098;-82
2022/05/22 00:29:32;;;;;;;9.60;6.20;;;;;;;10.65;100.00;101115.56;683692;28;1499;-81
2022/05/22 00:29:52;;;;;;;11.63;6.75;;;;;;;10.62;100.00;101118.16;686356;28;1513;-81
2022/05/22 00:30:13;;;;;;;11.60;6.50;;;;;;;10.59;100.00;101111.19;685967;28;1672;-81
2022/05/22 00:30:35;;;;;;;11.55;6.68;;;;;;;10.55;100.00;101115.53;677768;29;1480;-81
2022/05/22 00:30:55;;;;;;;9.68;6.50;;;;;;;10.56;100.00;101111.19;680488;28;1623;-81
2022/05/22 00:31:15;;;;;;;9.67;6.50;;;;;;;10.53;100.00;101106.81;682856;28;4319;-81
2022/05/22 00:31:36;;;;;;;9.25;6.80;;;;;;;10.53;100.00;101116.41;681020;28;2079;-82
2022/05/22 00:31:57;;;;;;;11.37;7.00;;;;;;;10.51;100.00;101105.94;681073;28;1508;-81
2022/05/22 00:32:18;;;;;;;10.38;6.55;;;;;;;10.52;100.00;101115.53;685230;28;1287;-81
2022/05/22 00:32:38;;;;;;;10.33;6.60;;;;;;;10.52;100.00;101110.31;686516;28;1502;-81
2022/05/22 00:33:00;;;;;;;10.63;6.57;;;;;;;10.50;100.00;101116.41;684393;28;1501;-81
2022/05/22 00:33:21;;;;;;;9.95;6.40;;;;;;;10.50;100.00;101112.03;683170;28;1621;-81
2022/05/22 00:33:41;;;;;;;10.30;6.90;;;;;;;10.50;100.00;101100.72;682743;28;1395;-81
2022/05/22 00:34:02;;;;;;;10.27;6.78;;;;;;;10.52;100.00;101104.19;681728;28;1491;-81
2022/05/22 00:34:23;;;;;;;9.63;6.30;;;;;;;10.49;100.00;101112.91;680917;28;4254;-82
2022/05/22 00:34:43;;;;;;;10.05;6.50;;;;;;;10.49;100.00;101122.50;680958;28;1750;-81
2022/05/22 00:35:05;;;;;;;9.73;6.37;;;;;;;10.46;100.00;101115.50;682134;28;1474;-81
2022/05/22 00:35:25;;;;;;;8.77;6.25;;;;;;;10.46;100.00;101110.28;681129;28;1611;-81
2022/05/22 00:35:46;;;;;;;8.97;6.47;;;;;;;10.45;100.00;101112.91;681761;28;1304;-81
2022/05/22 00:36:06;;;;;;;8.68;6.43;;;;;;;10.46;100.00;101102.44;681444;28;1570;-81
2022/05/22 00:36:27;;;;;;;8.77;6.03;;;;;;;10.50;100.00;101109.44;678301;29;1520;-81
2022/05/22 00:36:47;;;;;;;9.15;5.90;;;;;;;10.49;100.00;101105.06;677943;29;1519;-81
2022/05/22 00:37:08;;;;;;;9.30;6.43;;;;;;;10.47;100.00;101109.44;677289;29;4338;-81
2022/05/22 00:37:28;;;;;;;9.40;6.70;;;;;;;10.45;100.00;101098.06;680354;28;1439;-82
2022/05/22 00:37:48;;;;;;;8.83;6.53;;;;;;;10.46;100.00;101098.97;682553;28;1194;-82
2022/05/22 00:38:09;;;;;;;9.30;6.50;;;;;;;10.46;100.00;101099.84;685094;28;1808;-82
2022/05/22 00:38:29;;;;;;;8.30;6.20;;;;;;;10.47;100.00;101098.97;686245;28;2143;-81
2022/05/22 00:38:50;;;;;;;8.52;6.45;;;;;;;10.48;100.00;101092.88;681980;28;1419;-81
2022/05/22 00:39:10;;;;;;;8.83;6.37;;;;;;;10.48;100.00;101094.59;683445;28;1631;-82
2022/05/22 00:39:31;;;;;;;10.70;6.70;;;;;;;10.45;100.00;101098.06;682771;28;1703;-82
2022/05/22 00:39:53;;;;;;;10.47;6.83;;;;;;;10.42;100.00;101079.78;682335;28;1587;-81
2022/05/22 00:40:14;;;;;;;9.70;6.43;;;;;;;10.43;100.00;101078.91;683884;28;4318;-82
2022/05/22 00:40:35;;;;;;;9.53;6.40;;;;;;;10.46;100.00;101078.91;682774;28;1873;-81
2022/05/22 00:40:55;;;;;;;9.38;6.53;;;;;;;10.48;100.00;101085.03;679242;28;1956;-81
2022/05/22 00:41:17;;;;;;;11.35;6.18;;;;;;;10.49;100.00;101072.81;681528;28;1482;-81
2022/05/22 00:41:38;;;;;;;10.57;5.95;;;;;;;10.49;100.00;101071.06;680142;28;1768;-81
2022/05/22 00:41:59;;;;;;;9.73;6.00;;;;;;;10.48;100.00;101077.19;683387;28;1692;-81
2022/05/22 00:42:21;;;;;;;10.80;6.03;;;;;;;10.49;100.00;101065.84;682202;28;1212;-83
2022/05/22 00:42:45;;;;;;;10.07;6.07;;;;;;;10.49;100.00;101070.22;685107;28;1662;-82
2022/05/22 00:43:32;;;;;;;9.45;6.22;;;;;;;10.49;100.00;101078.91;682094;28;4374;-81
2022/05/22 00:43:55;;;;;;;9.10;5.78;;;;;;;10.48;100.00;101069.34;685522;28;1382;-81
2022/05/22 00:44:15;;;;;;;9.23;6.25;;;;;;;10.48;100.00;101060.63;686646;28;1275;-81
2022/05/22 00:44:36;;;;;;;10.48;6.97;;;;;;;10.47;100.00;101065.00;688482;28;1630;-82
2022/05/22 00:44:56;;;;;;;8.00;5.70;;;;;;;10.48;100.00;101064.13;686416;28;2474;-81
2022/05/22 00:45:19;;;;;;;8.95;5.82;;;;;;;10.50;100.00;101064.97;684600;28;1442;-81
2022/05/22 00:45:39;;;;;;;8.85;6.13;;;;;;;10.53;100.00;101070.22;683283;28;1197;-81
2022/05/22 00:46:01;;;;;;;8.57;6.28;;;;;;;10.54;100.00;101066.75;682568;28;1471;-81
2022/05/22 00:46:23;;;;;;;9.55;6.60;;;;;;;10.53;100.00;101061.50;682381;28;4283;-81
2022/05/22 00:46:44;;;;;;;10.20;6.30;;;;;;;10.53;100.00;101064.13;682537;28;1634;-82
2022/05/22 00:47:05;;;;;;;9.95;6.75;;;;;;;10.50;100.00;101058.91;683208;28;1397;-82
2022/05/22 00:47:25;;;;;;;9.57;6.87;;;;;;;10.47;100.00;101051.91;683107;28;1663;-81
2022/05/22 00:47:46;;;;;;;10.87;6.77;;;;;;;10.47;100.00;101051.91;683050;28;1235;-82
2022/05/22 00:48:07;;;;;;;10.52;6.28;;;;;;;10.51;100.00;101056.28;684746;28;2007;-82
2022/05/22 00:48:28;;;;;;;9.35;6.30;;;;;;;10.52;100.00;101051.91;685360;28;1312;-81
2022/05/22 00:48:54;;;;;;;9.50;6.25;;;;;;;10.53;100.00;101051.06;685594;28;1297;-81
2022/05/22 00:49:21;;;;;;;9.98;6.30;;;;;;;10.54;100.00;101050.19;682279;28;4307;-82
2022/05/22 00:49:47;;;;;;;9.38;6.60;;;;;;;10.53;100.00;101044.06;680619;28;1373;-81
2022/05/22 00:50:07;;;;;;;8.35;6.40;;;;;;;10.56;100.00;101051.94;680181;28;1428;-81
2022/05/22 00:50:28;;;;;;;9.93;6.30;;;;;;;10.55;100.00;101044.97;682110;28;1722;-82
2022/05/22 00:50:51;;;;;;;9.80;6.60;;;;;;;10.54;100.00;101045.81;680552;28;1968;-81
2022/05/22 00:51:25;;;;;;;8.82;6.30;;;;;;;10.52;100.00;101041.47;682171;28;1626;-81
2022/05/22 00:52:04;;;;;;;9.48;6.95;;;;;;;10.53;100.00;101044.06;682548;28;1065;-81
2022/05/22 00:52:58;;;;;;;9.35;6.50;;;;;;;10.53;100.00;101037.97;681172;28;4963;-81
2022/05/22 00:53:22;;;;;;;8.57;6.18;;;;;;;10.46;100.00;101038.84;671894;29;3180;-82
2022/05/22 00:53:49;;;;;;;8.18;6.40;;;;;;;10.46;100.00;101034.47;679688;28;1838;-81
2022/05/22 00:54:14;;;;;;;9.45;6.60;;;;;;;10.48;100.00;101045.81;683225;28;1872;-81
2022/05/22 00:55:08;;;;;;;10.18;6.30;;;;;;;10.48;100.00;101038.00;682810;28;1397;-81
2022/05/22 00:55:33;;;;;;;9.88;6.38;;;;;;;10.48;100.00;101044.94;682589;28;5190;-81
2022/05/22 00:55:53;;;;;;;9.88;6.13;;;;;;;10.47;100.00;101051.91;682721;28;2153;-82
2022/05/22 00:56:20;;;;;;;8.57;6.30;;;;;;;10.46;100.00;101044.94;686923;28;1548;-81
2022/05/22 00:56:45;;;;;;;8.93;6.30;;;;;;;10.45;100.00;101051.03;685465;28;1330;-81
2022/05/22 00:57:11;;;;;;;8.43;6.40;;;;;;;10.43;100.00;101052.78;684967;28;1260;-81
2022/05/22 00:57:51;;;;;;;10.25;7.10;;;;;;;10.44;100.00;101059.75;682331;28;1868;-82
2022/05/22 00:58:19;;;;;;;10.80;6.93;;;;;;;10.45;100.00;101051.03;679082;28;4334;-81
2022/05/22 00:58:41;;;;;;;10.65;6.22;;;;;;;10.44;100.00;101061.47;680347;28;1557;-81
2022/05/22 00:59:07;;;;;;;8.88;6.38;;;;;;;10.45;100.00;101058.88;677752;29;1791;-81
2022/05/22 00:59:35;;;;;;;9.73;6.78;;;;;;;10.43;100.00;101060.63;677546;29;1840;-81
2022/05/22 01:00:00;;;;;;;8.93;7.07;;;;;;;10.40;100.00;101063.25;677848;29;1665;-81
2022/05/22 01:00:23;;;;;;;9.82;6.90;;;;;;;10.40;100.00;101078.91;678000;29;1527;-81
2022/05/22 01:00:47;;;;;;;11.50;7.10;;;;;;;10.35;100.00;101060.59;677668;29;1926;-81
2022/05/22 01:01:08;;;;;;;11.75;7.28;;;;;;;10.36;100.00;101071.94;678661;28;4340;-81
2022/05/22 01:01:28;;;;;;;11.15;6.95;;;;;;;10.33;100.00;101072.75;674553;29;1687;-81
2022/05/22 01:01:50;;;;;;;11.43;7.20;;;;;;;10.30;100.00;101070.16;675425;29;1364;-82
2022/05/22 01:02:13;;;;;;;11.55;6.97;;;;;;;10.30;100.00;101074.47;675140;29;1435;-81
2022/05/22 01:03:31;;;;;;;10.80;7.10;;;;;;;10.24;100.00;101070.13;679590;28;1483;-81
2022/05/22 01:03:54;;;;;;;11.15;6.78;;;;;;;10.25;100.00;101066.66;688257;28;1437;-81
2022/05/22 01:04:20;;;;;;;10.90;7.25;;;;;;;10.27;100.00;101069.25;683992;28;4339;-81
2022/05/22 01:04:46;;;;;;;9.63;6.82;;;;;;;10.28;100.00;101068.41;680826;28;1403;-80
2022/05/22 01:05:06;;;;;;;8.88;6.65;;;;;;;10.25;100.00;101074.47;686467;28;1942;-82
2022/05/22 01:05:27;;;;;;;9.25;6.93;;;;;;;10.22;100.00;101075.34;683028;28;1584;-81
2022/05/22 01:05:48;;;;;;;10.50;6.82;;;;;;;10.20;100.00;101082.31;683865;28;1722;-81
2022/05/22 01:06:18;;;;;;;10.97;6.80;;;;;;;10.19;100.00;101070.09;677544;29;1313;-81
2022/05/22 01:06:39;;;;;;;9.50;6.72;;;;;;;10.20;100.00;101077.09;682751;28;1313;-82
2022/05/22 01:07:08;;;;;;;11.18;7.07;;;;;;;10.20;100.00;101082.31;684307;28;4316;-81
2022/05/22 01:07:28;;;;;;;9.80;7.00;;;;;;;10.19;100.00;101077.06;684637;28;1470;-82
2022/05/22 01:07:49;;;;;;;9.83;7.00;;;;;;;10.18;100.00;101081.41;683806;28;1484;-81
2022/05/22 01:08:10;;;;;;;9.77;6.95;;;;;;;10.16;100.00;101075.34;684718;28;1324;-79
2022/05/22 01:08:32;;;;;;;9.52;6.65;;;;;;;10.10;100.00;101075.28;686369;28;1461;-81
2022/05/22 01:08:52;;;;;;;9.20;6.90;;;;;;;10.04;100.00;101083.97;683355;28;1567;-81
2022/05/22 01:09:13;;;;;;;11.43;7.32;;;;;;;10.01;100.00;101075.25;680028;29;1646;-81
2022/05/22 01:09:35;;;;;;;11.70;7.22;;;;;;;10.01;100.00;101073.53;682652;28;1979;-82
2022/05/22 01:10:02;;;;;;;9.40;6.72;;;;;;;9.99;100.00;101077.00;683276;28;1465;-81
2022/05/22 01:10:32;;;;;;;11.07;6.63;;;;;;;10.03;100.00;101068.31;685406;28;4481;-81
2022/05/22 01:11:00;;;;;;;10.30;7.00;;;;;;;10.07;100.00;101077.91;682654;28;1300;-81
2022/05/22 01:11:25;;;;;;;9.73;6.65;;;;;;;10.12;100.00;101081.41;682600;28;1536;-81
2022/05/22 01:11:52;;;;;;;10.65;6.85;;;;;;;10.15;100.00;101084.03;680284;28;1753;-81
2022/05/22 01:12:21;;;;;;;9.95;6.75;;;;;;;10.15;100.00;101081.41;683584;28;2119;-81
2022/05/22 01:12:46;;;;;;;9.18;6.25;;;;;;;10.16;100.00;101080.56;682081;28;1405;-81
2022/05/22 01:13:09;;;;;;;9.38;6.43;;;;;;;10.16;100.00;101077.06;678770;29;4417;-81
2022/05/22 01:13:35;;;;;;;9.98;6.50;;;;;;;10.16;100.00;101084.88;682893;28;1547;-81
2022/05/22 01:14:01;;;;;;;9.25;6.40;;;;;;;10.17;100.00;101082.28;684047;28;1557;-81
2022/05/22 01:14:22;;;;;;;9.57;6.53;;;;;;;10.15;100.00;101084.03;685889;28;1439;-79
2022/05/22 01:14:52;;;;;;;11.63;7.30;;;;;;;10.12;100.00;101086.63;683190;28;1656;-79
2022/05/22 01:15:15;;;;;;;9.27;6.80;;;;;;;10.13;100.00;101092.72;679258;29;1284;-79
2022/05/22 01:15:35;;;;;;;10.30;6.88;;;;;;;10.16;100.00;101085.78;682594;28;1505;-80
2022/05/22 01:15:55;;;;;;;8.80;6.47;;;;;;;10.15;100.00;101088.34;681821;28;1759;-80
2022/05/22 01:16:16;;;;;;;10.20;6.80;;;;;;;10.17;100.00;101087.50;685806;28;4305;-79
2022/05/22 01:16:36;;;;;;;10.52;7.07;;;;;;;10.17;100.00;101087.50;686317;28;1359;-80
2022/05/22 01:17:03;;;;;;;10.45;7.22;;;;;;;10.19;100.00;101083.16;682331;28;1473;-80
2022/05/22 01:17:24;;;;;;;8.93;6.97;;;;;;;10.17;100.00;101084.03;682401;28;1657;-80
2022/05/22 01:17:47;;;;;;;9.20;7.07;;;;;;;10.14;100.00;101087.50;684404;28;1248;-80
2022/05/22 01:18:08;;;;;;;11.55;7.00;;;;;;;10.13;100.00;101093.59;680123;28;1405;-80
2022/05/22 01:18:29;;;;;;;12.17;7.13;;;;;;;10.14;100.00;101084.88;680318;29;1185;-80
2022/05/22 01:18:52;;;;;;;11.00;7.03;;;;;;;10.16;100.00;101077.06;677768;29;1077;-80
2022/05/22 01:19:15;;;;;;;9.38;7.20;;;;;;;10.18;100.00;101094.47;679741;28;4299;-80
2022/05/22 01:19:37;;;;;;;9.88;6.70;;;;;;;10.18;100.00;101088.41;680169;28;1536;-80
2022/05/22 01:20:00;;;;;;;11.55;7.03;;;;;;;10.18;100.00;101083.16;682185;28;1509;-80
2022/05/22 01:20:22;;;;;;;9.95;7.18;;;;;;;10.20;100.00;101086.66;686352;28;1478;-80
2022/05/22 01:20:47;;;;;;;11.10;6.90;;;;;;;10.17;100.00;101084.03;685080;28;1303;-80
2022/05/22 01:21:12;;;;;;;11.45;7.25;;;;;;;10.14;100.00;101082.28;685109;28;1354;-80
2022/05/22 01:21:34;;;;;;;11.82;7.13;;;;;;;10.13;100.00;101088.34;681253;29;1300;-80
2022/05/22 01:21:59;;;;;;;11.18;6.90;;;;;;;10.12;100.00;101089.25;680442;28;1831;-80
2022/05/22 01:22:20;;;;;;;11.27;7.35;;;;;;;10.10;100.00;101084.88;679829;29;4338;-80
2022/05/22 01:22:41;;;;;;;11.20;7.50;;;;;;;10.08;100.00;101087.50;682508;28;1332;-80
2022/05/22 01:23:02;;;;;;;10.63;7.57;;;;;;;10.04;100.00;101088.34;682941;28;1826;-80
2022/05/22 01:23:23;;;;;;;10.50;7.18;;;;;;;10.01;100.00;101083.09;685494;28;1413;-80
2022/05/22 01:23:44;;;;;;;10.43;7.18;;;;;;;9.99;100.00;101087.44;684872;28;1579;-81
2022/05/22 01:24:13;;;;;;;10.68;7.32;;;;;;;9.98;100.00;101083.06;682522;28;1479;-80
2022/05/22 01:24:35;;;;;;;9.55;7.25;;;;;;;10.00;100.00;101076.13;681809;28;1205;-80
2022/05/22 01:24:57;;;;;;;9.30;6.97;;;;;;;10.04;100.00;101088.34;683049;28;1486;-80
2022/05/22 01:25:17;;;;;;;10.50;6.80;;;;;;;10.06;100.00;101078.75;677669;28;4354;-80
2022/05/22 01:25:38;;;;;;;11.77;6.80;;;;;;;10.06;100.00;101089.22;682069;28;1445;-80
2022/05/22 01:25:59;;;;;;;12.02;7.20;;;;;;;10.07;100.00;101088.34;683775;28;1687;-80
2022/05/22 01:26:25;;;;;;;11.65;7.40;;;;;;;10.11;100.00;101082.28;685411;28;1602;-80
2022/05/22 01:27:09;;;;;;;10.15;7.13;;;;;;;10.13;100.00;101082.28;687667;28;1303;-80
2022/05/22 01:27:45;;;;;;;11.82;7.43;;;;;;;10.16;100.00;101082.28;685733;28;1300;-79
2022/05/22 01:28:19;;;;;;;10.45;7.32;;;;;;;10.17;100.00;101070.97;687070;28;4327;-80
2022/05/22 01:28:40;;;;;;;10.02;7.60;;;;;;;10.15;100.00;101083.13;686040;28;1713;-80
2022/05/22 01:29:05;;;;;;;10.35;7.03;;;;;;;10.11;100.00;101082.28;685603;28;1634;-80
2022/05/22 01:29:25;;;;;;;10.57;7.10;;;;;;;10.13;100.00;101080.53;684664;28;1263;-80
2022/05/22 01:29:47;;;;;;;9.13;6.60;;;;;;;10.12;100.00;101078.81;685707;28;993;-80
2022/05/22 01:30:20;;;;;;;8.52;6.90;;;;;;;10.11;100.00;101077.03;684862;28;1556;-80
2022/05/22 01:30:48;;;;;;;11.50;6.90;;;;;;;10.12;100.00;101077.91;686921;28;1652;-80
2022/05/22 01:31:09;;;;;;;11.87;7.27;;;;;;;10.11;100.00;101076.19;686412;28;4479;-82
2022/05/22 01:31:30;;;;;;;10.30;7.35;;;;;;;10.11;100.00;101082.28;681881;28;1276;-80
2022/05/22 01:31:54;;;;;;;11.23;7.38;;;;;;;10.14;100.00;101084.88;679284;28;2068;-80
2022/05/22 01:32:14;;;;;;;11.37;7.07;;;;;;;10.13;100.00;101080.53;684998;28;1508;-80
2022/05/22 01:32:40;;;;;;;10.82;7.20;;;;;;;10.12;100.00;101075.28;680717;28;1581;-80
2022/05/22 01:33:02;;;;;;;10.45;7.10;;;;;;;10.12;100.00;101081.41;682752;28;1380;-80
2022/05/22 01:33:23;;;;;;;10.50;7.10;;;;;;;10.11;100.00;101078.78;681146;28;1387;-80
2022/05/22 01:33:49;;;;;;;9.57;7.15;;;;;;;10.11;100.00;101082.28;682173;28;1758;-80
2022/05/22 01:34:11;;;;;;;9.88;7.18;;;;;;;10.11;100.00;101089.25;681389;28;4318;-80
2022/05/22 01:34:31;;;;;;;10.57;7.50;;;;;;;10.09;100.00;101083.13;680070;29;1311;-80
2022/05/22 01:34:55;;;;;;;11.68;7.18;;;;;;;10.06;100.00;101078.75;680163;28;1254;-80
2022/05/22 01:35:20;;;;;;;11.77;7.07;;;;;;;10.07;100.00;101075.28;682988;28;1597;-80
2022/05/22 01:35:41;;;;;;;12.07;7.80;;;;;;;10.09;100.00;101077.91;680599;28;1655;-80
2022/05/22 01:36:03;;;;;;;10.52;7.43;;;;;;;10.09;100.00;101083.13;681315;28;1515;-81
2022/05/22 01:36:23;;;;;;;9.70;7.00;;;;;;;10.11;100.00;101084.88;677612;29;1552;-80
2022/05/22 01:36:48;;;;;;;10.95;7.38;;;;;;;10.10;100.00;101074.44;683491;28;1429;-80
2022/05/22 01:37:09;;;;;;;10.63;7.40;;;;;;;10.09;100.00;101077.91;682286;28;4296;-81
2022/05/22 01:37:31;;;;;;;10.85;7.68;;;;;;;10.08;100.00;101077.03;682864;28;1499;-81
2022/05/22 01:37:52;;;;;;;11.85;7.65;;;;;;;10.08;100.00;101073.53;685986;28;1654;-81
2022/05/22 01:38:14;;;;;;;11.00;7.30;;;;;;;10.08;100.00;101074.44;686569;28;1565;-80
2022/05/22 01:38:38;;;;;;;11.18;7.07;;;;;;;10.07;100.00;101080.50;683576;28;1526;-81
2022/05/22 01:38:59;;;;;;;11.73;7.40;;;;;;;10.05;100.00;101077.91;680447;28;1488;-80
2022/05/22 01:39:27;;;;;;;10.43;7.22;;;;;;;10.10;100.00;101082.28;679217;29;1680;-80
2022/05/22 01:39:52;;;;;;;11.32;7.40;;;;;;;10.11;100.00;101076.19;681179;28;1520;-80
2022/05/22 01:40:13;;;;;;;10.45;7.45;;;;;;;10.13;100.00;101082.28;679551;29;4373;-80
2022/05/22 01:40:34;;;;;;;10.73;7.18;;;;;;;10.13;100.00;101080.53;679826;28;1675;-80
2022/05/22 01:40:54;;;;;;;10.80;6.90;;;;;;;10.13;100.00;101085.75;680464;28;1907;-80
2022/05/22 01:41:31;;;;;;;10.75;7.22;;;;;;;10.15;100.00;101077.91;679425;29;1456;-80
2022/05/22 01:41:52;;;;;;;11.27;7.22;;;;;;;10.08;100.00;101078.75;683353;28;1506;-80
2022/05/22 01:42:14;;;;;;;10.55;7.47;;;;;;;9.98;100.00;101089.19;685297;28;1626;-80
2022/05/22 01:42:36;;;;;;;11.30;7.93;;;;;;;9.94;100.00;101086.53;687169;28;1525;-79
2022/05/22 01:42:56;;;;;;;10.98;7.60;;;;;;;9.88;100.00;101080.44;685963;28;1579;-80
2022/05/22 01:43:18;;;;;;;12.93;7.40;;;;;;;9.83;100.00;101081.25;685314;28;4316;-80
2022/05/22 01:43:40;;;;;;;12.70;7.28;;;;;;;9.78;100.00;101086.47;685489;28;1495;-80
2022/05/22 01:44:09;;;;;;;10.15;7.20;;;;;;;9.82;100.00;101084.75;680085;28;1102;-80
2022/05/22 01:44:39;;;;;;;10.20;7.40;;;;;;;9.79;100.00;101088.22;686561;28;1475;-80
2022/05/22 01:45:04;;;;;;;11.27;7.75;;;;;;;9.77;100.00;101078.63;682802;28;1377;-80
2022/05/22 01:45:26;;;;;;;10.90;7.60;;;;;;;9.75;100.00;101078.63;684760;28;1607;-79
2022/05/22 01:45:48;;;;;;;11.30;7.70;;;;;;;9.77;100.00;101082.09;679729;28;1383;-80
2022/05/22 01:46:10;;;;;;;11.35;7.88;;;;;;;9.80;100.00;101087.38;682206;28;4357;-80
2022/05/22 01:46:32;;;;;;;13.38;8.15;;;;;;;9.83;100.00;101076.03;682931;28;1634;-79
2022/05/22 01:47:00;;;;;;;10.95;7.40;;;;;;;9.85;100.00;101080.41;682980;28;1609;-79
2022/05/22 01:47:22;;;;;;;10.77;7.57;;;;;;;9.87;100.00;101081.31;685039;28;1477;-79
2022/05/22 01:47:43;;;;;;;9.80;7.10;;;;;;;9.88;100.00;101084.78;682569;28;1331;-82
2022/05/22 01:48:04;;;;;;;10.47;7.20;;;;;;;9.88;100.00;101077.84;682052;28;1639;-80
2022/05/22 01:48:29;;;;;;;10.05;7.35;;;;;;;9.86;100.00;101076.94;677401;28;1571;-80
2022/05/22 01:48:50;;;;;;;10.03;7.80;;;;;;;9.79;100.00;101083.00;679872;28;1683;-80
2022/05/22 01:49:15;;;;;;;10.50;7.38;;;;;;;9.76;100.00;101074.25;682300;28;4364;-80